sensor_id;sensor_type;location;lat;lon;timestamp;pressure;altitude;pressure_sealevel;temperature;humidity
54407;BME280;40313;50.308;30.374;2023-03-16T00:01:02;98852.34;;;2.37;100.00
54407;BME280;40313;50.308;30.374;2023-03-16T00:03:28;98852.25;;;2.40;100.00
54407;BME280;40313;50.308;30.374;2023-03-16T00:05:56;98853.88;;;2.42;100.00
54407;BME280;40313;50.308;30.374;2023-03-16T00:08:23;98850.41;;;2.44;100.00
54407;BME280;40313;50.308;30.374;2023-03-16T00:10:51;98845.22;;;2.45;100.00
54407;BME280;40313;50.308;30.374;2023-03-16T00:13:20;98840.81;;;2.49;100.00
54407;BME280;40313;50.308;30.374;2023-03-16T00:15:51;98839.81;;;2.51;100.00
54407;BME280;40313;50.308;30.374;2023-03-16T00:18:19;98836.25;;;2.55;100.00
54407;BME280;40313;50.308;30.374;2023-03-16T00:20:49;98843.78;;;2.62;100.00
54407;BME280;40313;50.308;30.374;2023-03-16T00:23:17;98834.13;;;2.67;100.00
54407;BME280;40313;50.308;30.374;2023-03-16T00:25:51;98832.34;;;2.69;100.00
54407;BME280;40313;50.308;30.374;2023-03-16T00:28:19;98832.09;;;2.75;100.00
54407;BME280;40313;50.308;30.374;2023-03-16T00:30:46;98833.75;;;2.78;100.00
54407;BME280;40313;50.308;30.374;2023-03-16T00:33:13;98838.78;;;2.81;100.00
54407;BME280;40313;50.308;30.374;2023-03-16T00:35:40;98820.00;;;2.77;100.00
54407;BME280;40313;50.308;30.374;2023-03-16T00:38:15;98825.16;;;2.77;100.00
54407;BME280;40313;50.308;30.374;2023-03-16T00:40:43;98833.38;;;2.87;100.00
54407;BME280;40313;50.308;30.374;2023-03-16T00:43:09;98839.38;;;2.87;100.00
54407;BME280;40313;50.308;30.374;2023-03-16T00:45:36;98829.97;;;2.86;100.00
54407;BME280;40313;50.308;30.374;2023-03-16T00:48:03;98834.22;;;2.87;100.00
54407;BME280;40313;50.308;30.374;2023-03-16T00:50:29;98838.59;;;2.85;100.00
54407;BME280;40313;50.308;30.374;2023-03-16T00:52:56;98848.00;;;2.86;100.00
54407;BME280;40313;50.308;30.374;2023-03-16T00:55:22;98839.47;;;2.84;100.00
54407;BME280;40313;50.308;30.374;2023-03-16T00:57:50;98839.47;;;2.84;100.00
54407;BME280;40313;50.308;30.374;2023-03-16T01:00:17;98841.22;;;2.84;100.00
54407;BME280;40313;50.308;30.374;2023-03-16T01:02:45;98833.44;;;2.85;100.00
54407;BME280;40313;50.308;30.374;2023-03-16T01:05:13;98844.56;;;2.86;100.00
54407;BME280;40313;50.308;30.374;2023-03-16T01:07:40;98846.31;;;2.85;100.00
54407;BME280;40313;50.308;30.374;2023-03-16T01:10:08;98848.91;;;2.85;100.00
54407;BME280;40313;50.308;30.374;2023-03-16T01:12:35;98847.19;;;2.84;100.00
54407;BME280;40313;50.308;30.374;2023-03-16T01:15:03;98850.69;;;2.83;100.00
54407;BME280;40313;50.308;30.374;2023-03-16T01:17:31;98841.22;;;2.84;100.00
54407;BME280;40313;50.308;30.374;2023-03-16T01:19:59;98851.53;;;2.84;100.00
54407;BME280;40313;50.308;30.374;2023-03-16T01:22:25;98856.56;;;2.87;100.00
54407;BME280;40313;50.308;30.374;2023-03-16T01:24:52;98863.47;;;2.86;100.00
54407;BME280;40313;50.308;30.374;2023-03-16T01:27:19;98862.56;;;2.87;100.00
54407;BME280;40313;50.308;30.374;2023-03-16T01:29:45;98871.97;;;2.88;100.00
54407;BME280;40313;50.308;30.374;2023-03-16T01:32:13;98865.91;;;2.89;100.00
54407;BME280;40313;50.308;30.374;2023-03-16T01:34:40;98867.66;;;2.89;100.00
54407;BME280;40313;50.308;30.374;2023-03-16T01:37:06;98869.38;;;2.88;100.00
54407;BME280;40313;50.308;30.374;2023-03-16T01:39:33;98875.41;;;2.89;100.00
54407;BME280;40313;50.308;30.374;2023-03-16T01:41:59;98883.94;;;2.89;100.00
54407;BME280;40313;50.308;30.374;2023-03-16T01:44:27;98872.06;;;2.85;100.00
54407;BME280;40313;50.308;30.374;2023-03-16T01:46:55;98871.84;;;2.91;100.00
54407;BME280;40313;50.308;30.374;2023-03-16T01:49:24;98880.44;;;2.92;100.00
54407;BME280;40313;50.308;30.374;2023-03-16T01:51:53;98874.31;;;2.94;100.00
54407;BME280;40313;50.308;30.374;2023-03-16T01:54:25;98884.50;;;2.98;100.00
54407;BME280;40313;50.308;30.374;2023-03-16T01:56:58;98880.19;;;2.98;100.00
54407;BME280;40313;50.308;30.374;2023-03-16T01:59:30;98880.13;;;3.00;100.00
54407;BME280;40313;50.308;30.374;2023-03-16T02:01:57;98881.88;;;2.99;100.00
54407;BME280;40313;50.308;30.374;2023-03-16T02:04:39;98886.13;;;3.00;100.00
54407;BME280;40313;50.308;30.374;2023-03-16T02:07:08;98885.28;;;3.00;100.00
54407;BME280;40313;50.308;30.374;2023-03-16T02:09:36;98881.03;;;2.99;100.00
54407;BME280;40313;50.308;30.374;2023-03-16T02:12:05;98875.91;;;2.99;100.00
54407;BME280;40313;50.308;30.374;2023-03-16T02:14:33;98881.03;;;2.99;100.00
54407;BME280;40313;50.308;30.374;2023-03-16T02:16:59;98881.03;;;2.99;100.00
54407;BME280;40313;50.308;30.374;2023-03-16T02:19:35;98888.81;;;2.97;100.00
54407;BME280;40313;50.308;30.374;2023-03-16T02:22:07;98898.34;;;2.95;100.00
54407;BME280;40313;50.308;30.374;2023-03-16T02:24:35;98901.03;;;2.92;100.00
54407;BME280;40313;50.308;30.374;2023-03-16T02:27:03;98905.31;;;2.91;100.00
54407;BME280;40313;50.308;30.374;2023-03-16T02:29:57;98913.97;;;2.90;100.00
54407;BME280;40313;50.308;30.374;2023-03-16T02:32:26;98912.28;;;2.89;100.00
54407;BME280;40313;50.308;30.374;2023-03-16T02:34:55;98926.97;;;2.87;100.00
54407;BME280;40313;50.308;30.374;2023-03-16T02:37:22;98920.97;;;2.87;100.00
54407;BME280;40313;50.308;30.374;2023-03-16T02:39:48;98914.13;;;2.86;100.00
54407;BME280;40313;50.308;30.374;2023-03-16T02:42:17;98916.09;;;2.79;100.00
54407;BME280;40313;50.308;30.374;2023-03-16T02:44:49;98907.81;;;2.71;100.00
54407;BME280;40313;50.308;30.374;2023-03-16T02:47:26;98895.81;;;2.70;100.00
54407;BME280;40313;50.308;30.374;2023-03-16T02:49:54;98896.66;;;2.70;100.00
54407;BME280;40313;50.308;30.374;2023-03-16T02:52:20;98900.91;;;2.71;100.00
54407;BME280;40313;50.308;30.374;2023-03-16T02:54:47;98893.19;;;2.71;100.00
54407;BME280;40313;50.308;30.374;2023-03-16T02:57:13;98900.84;;;2.73;100.00
54407;BME280;40313;50.308;30.374;2023-03-16T02:59:40;98898.25;;;2.74;100.00
54407;BME280;40313;50.308;30.374;2023-03-16T03:02:06;98903.41;;;2.74;100.00
54407;BME280;40313;50.308;30.374;2023-03-16T03:04:34;98901.66;;;2.75;100.00
54407;BME280;40313;50.308;30.374;2023-03-16T03:07:01;98898.25;;;2.74;100.00
54407;BME280;40313;50.308;30.374;2023-03-16T03:09:29;98895.69;;;2.73;100.00
54407;BME280;40313;50.308;30.374;2023-03-16T03:11:57;98904.34;;;2.72;100.00
54407;BME280;40313;50.308;30.374;2023-03-16T03:14:24;98901.81;;;2.70;100.00
54407;BME280;40313;50.308;30.374;2023-03-16T03:16:52;98906.22;;;2.67;100.00
54407;BME280;40313;50.308;30.374;2023-03-16T03:19:19;98894.28;;;2.64;100.00
54407;BME280;40313;50.308;30.374;2023-03-16T03:21:49;98899.38;;;2.66;100.00
54407;BME280;40313;50.308;30.374;2023-03-16T03:24:15;98898.56;;;2.65;100.00
54407;BME280;40313;50.308;30.374;2023-03-16T03:26:43;98900.31;;;2.65;100.00
54407;BME280;40313;50.308;30.374;2023-03-16T03:29:10;98908.81;;;2.67;100.00
54407;BME280;40313;50.308;30.374;2023-03-16T03:31:36;98907.09;;;2.67;100.00
54407;BME280;40313;50.308;30.374;2023-03-16T03:34:03;98907.13;;;2.66;100.00
54407;BME280;40313;50.308;30.374;2023-03-16T03:36:31;98907.91;;;2.68;100.00
54407;BME280;40313;50.308;30.374;2023-03-16T03:38:59;98896.78;;;2.67;100.00
54407;BME280;40313;50.308;30.374;2023-03-16T03:41:29;98911.38;;;2.67;100.00
54407;BME280;40313;50.308;30.374;2023-03-16T03:43:57;98910.53;;;2.66;100.00
54407;BME280;40313;50.308;30.374;2023-03-16T03:46:23;98917.41;;;2.66;100.00
54407;BME280;40313;50.308;30.374;2023-03-16T03:48:50;98913.28;;;2.62;100.00
54407;BME280;40313;50.308;30.374;2023-03-16T03:51:16;98911.72;;;2.57;100.00
54407;BME280;40313;50.308;30.374;2023-03-16T03:53:43;98924.44;;;2.62;100.00
54407;BME280;40313;50.308;30.374;2023-03-16T03:56:10;98922.63;;;2.64;100.00
54407;BME280;40313;50.308;30.374;2023-03-16T03:58:37;98924.47;;;2.61;100.00
54407;BME280;40313;50.308;30.374;2023-03-16T04:01:04;98929.69;;;2.59;100.00
54407;BME280;40313;50.308;30.374;2023-03-16T04:03:30;98933.09;;;2.59;100.00
54407;BME280;40313;50.308;30.374;2023-03-16T04:05:57;98933.97;;;2.58;100.00
54407;BME280;40313;50.308;30.374;2023-03-16T04:08:24;98940.94;;;2.56;100.00
54407;BME280;40313;50.308;30.374;2023-03-16T04:10:50;98942.72;;;2.54;100.00
54407;BME280;40313;50.308;30.374;2023-03-16T04:13:18;98938.41;;;2.55;100.00
54407;BME280;40313;50.308;30.374;2023-03-16T04:15:44;98941.81;;;2.55;100.00
54407;BME280;40313;50.308;30.374;2023-03-16T04:18:12;98937.47;;;2.57;100.00
54407;BME280;40313;50.308;30.374;2023-03-16T04:20:38;98933.09;;;2.59;100.00
54407;BME280;40313;50.308;30.374;2023-03-16T04:23:05;98940.69;;;2.63;100.00
54407;BME280;40313;50.308;30.374;2023-03-16T04:25:31;98940.59;;;2.66;100.00
54407;BME280;40313;50.308;30.374;2023-03-16T04:27:59;98937.19;;;2.65;100.00
54407;BME280;40313;50.308;30.374;2023-03-16T04:30:27;98937.13;;;2.67;100.00
54407;BME280;40313;50.308;30.374;2023-03-16T04:32:55;98944.75;;;2.70;100.00
54407;BME280;40313;50.308;30.374;2023-03-16T04:35:21;98943.97;;;2.68;100.00
54407;BME280;40313;50.308;30.374;2023-03-16T04:37:47;98954.38;;;2.65;100.00
54407;BME280;40313;50.308;30.374;2023-03-16T04:40:14;98950.22;;;2.61;100.00
54407;BME280;40313;50.308;30.374;2023-03-16T04:42:42;98953.69;;;2.59;100.00
54407;BME280;40313;50.308;30.374;2023-03-16T04:45:09;98958.91;;;2.58;100.00
54407;BME280;40313;50.308;30.374;2023-03-16T04:47:38;98966.69;;;2.56;100.00
54407;BME280;40313;50.308;30.374;2023-03-16T04:50:07;98965.94;;;2.53;100.00
54407;BME280;40313;50.308;30.374;2023-03-16T04:52:34;98966.09;;;2.48;100.00
54407;BME280;40313;50.308;30.374;2023-03-16T04:55:01;98971.41;;;2.44;100.00
54407;BME280;40313;50.308;30.374;2023-03-16T04:57:27;98965.59;;;2.37;100.00
54407;BME280;40313;50.308;30.374;2023-03-16T04:59:54;98964.84;;;2.35;100.00
54407;BME280;40313;50.308;30.374;2023-03-16T05:02:21;98973.50;;;2.32;100.00
54407;BME280;40313;50.308;30.374;2023-03-16T05:04:49;98965.78;;;2.32;100.00
54407;BME280;40313;50.308;30.374;2023-03-16T05:07:16;98977.00;;;2.30;100.00
54407;BME280;40313;50.308;30.374;2023-03-16T05:09:43;98988.34;;;2.24;100.00
54407;BME280;40313;50.308;30.374;2023-03-16T05:12:10;98986.63;;;2.24;100.00
54407;BME280;40313;50.308;30.374;2023-03-16T05:14:37;98988.50;;;2.19;100.00
54407;BME280;40313;50.308;30.374;2023-03-16T05:17:03;98999.00;;;2.13;100.00
54407;BME280;40313;50.308;30.374;2023-03-16T05:19:30;98997.34;;;2.11;100.00
54407;BME280;40313;50.308;30.374;2023-03-16T05:21:58;99000.03;;;2.07;100.00
54407;BME280;40313;50.308;30.374;2023-03-16T05:24:25;99010.50;;;2.01;100.00
54407;BME280;40313;50.308;30.374;2023-03-16T05:26:51;99020.78;;;2.01;100.00
54407;BME280;40313;50.308;30.374;2023-03-16T05:29:18;99020.16;;;1.95;100.00
54407;BME280;40313;50.308;30.374;2023-03-16T05:31:44;99025.41;;;1.92;100.00
54407;BME280;40313;50.308;30.374;2023-03-16T05:34:12;99027.31;;;1.85;100.00
54407;BME280;40313;50.308;30.374;2023-03-16T05:36:38;99035.84;;;1.85;100.00
54407;BME280;40313;50.308;30.374;2023-03-16T05:39:06;99038.53;;;1.82;100.00
54407;BME280;40313;50.308;30.374;2023-03-16T05:41:33;99048.88;;;1.81;100.00
54407;BME280;40313;50.308;30.374;2023-03-16T05:44:00;99049.69;;;1.81;100.00
54407;BME280;40313;50.308;30.374;2023-03-16T05:46:26;99052.19;;;1.84;100.00
54407;BME280;40313;50.308;30.374;2023-03-16T05:48:53;99053.91;;;1.84;100.00
54407;BME280;40313;50.308;30.374;2023-03-16T05:51:19;99059.81;;;1.87;100.00
54407;BME280;40313;50.308;30.374;2023-03-16T05:53:47;99052.06;;;1.89;100.00
54407;BME280;40313;50.308;30.374;2023-03-16T05:56:15;99055.41;;;1.91;100.00
54407;BME280;40313;50.308;30.374;2023-03-16T05:58:42;99049.69;;;1.81;100.00
54407;BME280;40313;50.308;30.374;2023-03-16T06:01:08;99044.59;;;1.80;100.00
54407;BME280;40313;50.308;30.374;2023-03-16T06:03:37;99048.09;;;1.79;100.00
54407;BME280;40313;50.308;30.374;2023-03-16T06:06:03;99045.53;;;1.77;100.00
54407;BME280;40313;50.308;30.374;2023-03-16T06:08:30;99050.66;;;1.77;100.00
54407;BME280;40313;50.308;30.374;2023-03-16T06:10:56;99056.63;;;1.79;100.00
54407;BME280;40313;50.308;30.374;2023-03-16T06:13:24;99057.56;;;1.77;100.00
54407;BME280;40313;50.308;30.374;2023-03-16T06:15:51;99060.16;;;1.75;100.00
54407;BME280;40313;50.308;30.374;2023-03-16T06:18:17;99061.00;;;1.76;100.00
54407;BME280;40313;50.308;30.374;2023-03-16T06:20:44;99066.25;;;1.72;100.00
54407;BME280;40313;50.308;30.374;2023-03-16T06:23:11;99073.06;;;1.73;100.00
54407;BME280;40313;50.308;30.374;2023-03-16T06:25:38;99073.03;;;1.75;100.00
54407;BME280;40313;50.308;30.374;2023-03-16T06:28:05;99072.06;;;1.79;100.00
54407;BME280;40313;50.308;30.374;2023-03-16T06:30:33;99078.94;;;1.79;100.00
54407;BME280;40313;50.308;30.374;2023-03-16T06:32:59;99075.41;;;1.81;100.00
54407;BME280;40313;50.308;30.374;2023-03-16T06:35:26;99084.81;;;1.82;100.00
54407;BME280;40313;50.308;30.374;2023-03-16T06:37:52;99083.06;;;1.83;100.00
54407;BME280;40313;50.308;30.374;2023-03-16T06:40:19;99077.09;;;1.82;100.00
54407;BME280;40313;50.308;30.374;2023-03-16T06:42:46;99094.13;;;1.86;100.00
54407;BME280;40313;50.308;30.374;2023-03-16T06:45:12;99087.25;;;1.87;100.00
54407;BME280;40313;50.308;30.374;2023-03-16T06:47:42;99090.63;;;1.89;100.00
54407;BME280;40313;50.308;30.374;2023-03-16T06:50:09;99087.97;;;1.92;100.00
54407;BME280;40313;50.308;30.374;2023-03-16T06:52:36;99099.09;;;1.93;100.00
54407;BME280;40313;50.308;30.374;2023-03-16T06:55:03;99105.91;;;1.94;100.00
54407;BME280;40313;50.308;30.374;2023-03-16T06:57:30;99098.00;;;2.00;100.00
54407;BME280;40313;50.308;30.374;2023-03-16T06:59:57;99101.34;;;2.03;100.00
54407;BME280;40313;50.308;30.374;2023-03-16T07:02:23;99096.25;;;2.02;100.00
54407;BME280;40313;50.308;30.374;2023-03-16T07:04:51;99099.34;;;2.13;100.00
54407;BME280;40313;50.308;30.374;2023-03-16T07:07:18;99102.03;;;2.08;100.00
54407;BME280;40313;50.308;30.374;2023-03-16T07:09:44;99102.09;;;2.07;100.00
54407;BME280;40313;50.308;30.374;2023-03-16T07:12:11;99102.91;;;2.09;100.00
54407;BME280;40313;50.308;30.374;2023-03-16T07:14:38;99106.03;;;2.19;100.00
54407;BME280;40313;50.308;30.374;2023-03-16T07:17:04;99105.94;;;2.22;100.00
54407;BME280;40313;50.308;30.374;2023-03-16T07:19:31;99103.31;;;2.23;100.00
54407;BME280;40313;50.308;30.374;2023-03-16T07:21:59;99112.56;;;2.29;100.00
54407;BME280;40313;50.308;30.374;2023-03-16T07:24:27;99110.06;;;2.28;100.00
54407;BME280;40313;50.308;30.374;2023-03-16T07:26:54;99116.84;;;2.30;100.00
54407;BME280;40313;50.308;30.374;2023-03-16T07:29:20;99106.28;;;2.38;100.00
54407;BME280;40313;50.308;30.374;2023-03-16T07:31:47;99110.38;;;2.45;100.00
54407;BME280;40313;50.308;30.374;2023-03-16T07:34:13;99108.41;;;2.53;100.00
54407;BME280;40313;50.308;30.374;2023-03-16T07:36:40;99114.22;;;2.58;100.00
54407;BME280;40313;50.308;30.374;2023-03-16T07:39:08;99113.50;;;2.55;100.00
54407;BME280;40313;50.308;30.374;2023-03-16T07:41:38;99116.00;;;2.56;100.00
54407;BME280;40313;50.308;30.374;2023-03-16T07:44:04;99114.31;;;2.55;100.00
54407;BME280;40313;50.308;30.374;2023-03-16T07:46:31;99124.44;;;2.62;100.00
54407;BME280;40313;50.308;30.374;2023-03-16T07:48:57;99120.28;;;2.57;100.00
54407;BME280;40313;50.308;30.374;2023-03-16T07:51:24;99120.22;;;2.59;100.00
54407;BME280;40313;50.308;30.374;2023-03-16T07:53:50;99117.50;;;2.64;100.00
54407;BME280;40313;50.308;30.374;2023-03-16T07:56:19;99119.13;;;2.66;100.00
54407;BME280;40313;50.308;30.374;2023-03-16T07:58:46;99126.72;;;2.71;100.00
54407;BME280;40313;50.308;30.374;2023-03-16T08:01:12;99119.75;;;2.73;100.00
54407;BME280;40313;50.308;30.374;2023-03-16T08:03:39;99124.78;;;2.78;100.00
54407;BME280;40313;50.308;30.374;2023-03-16T08:06:06;99121.78;;;2.90;100.00
54407;BME280;40313;50.308;30.374;2023-03-16T08:08:32;99120.06;;;2.90;100.00
54407;BME280;40313;50.308;30.374;2023-03-16T08:10:59;99113.00;;;2.96;100.00
54407;BME280;40313;50.308;30.374;2023-03-16T08:13:27;99118.66;;;3.07;100.00
54407;BME280;40313;50.308;30.374;2023-03-16T08:15:54;99115.13;;;3.09;100.00
54407;BME280;40313;50.308;30.374;2023-03-16T08:18:23;99117.66;;;3.11;100.00
54407;BME280;40313;50.308;30.374;2023-03-16T08:20:50;99122.84;;;3.09;100.00
54407;BME280;40313;50.308;30.374;2023-03-16T08:23:16;99120.69;;;2.97;100.00
54407;BME280;40313;50.308;30.374;2023-03-16T08:25:43;99121.22;;;3.07;100.00
54407;BME280;40313;50.308;30.374;2023-03-16T08:28:10;99116.94;;;3.07;100.00
54407;BME280;40313;50.308;30.374;2023-03-16T08:30:43;99127.28;;;3.06;100.00
54407;BME280;40313;50.308;30.374;2023-03-16T08:33:09;99121.22;;;3.07;100.00
54407;BME280;40313;50.308;30.374;2023-03-16T08:35:36;99125.31;;;3.13;100.00
54407;BME280;40313;50.308;30.374;2023-03-16T08:38:06;99125.28;;;3.14;100.00
54407;BME280;40313;50.308;30.374;2023-03-16T08:40:33;99131.13;;;3.19;100.00
54407;BME280;40313;50.308;30.374;2023-03-16T08:42:59;99130.78;;;3.28;100.00
54407;BME280;40313;50.308;30.374;2023-03-16T08:45:26;99134.06;;;3.34;100.00
54407;BME280;40313;50.308;30.374;2023-03-16T08:47:54;99146.78;;;3.38;100.00
54407;BME280;40313;50.308;30.374;2023-03-16T08:50:21;99144.16;;;3.40;100.00
54407;BME280;40313;50.308;30.374;2023-03-16T08:52:47;99164.16;;;3.33;100.00
54407;BME280;40313;50.308;30.374;2023-03-16T08:55:15;99163.19;;;3.36;100.00
54407;BME280;40313;50.308;30.374;2023-03-16T08:57:42;99161.19;;;3.44;100.00
54407;BME280;40313;50.308;30.374;2023-03-16T09:00:10;99163.63;;;3.49;100.00
54407;BME280;40313;50.308;30.374;2023-03-16T09:02:39;99168.69;;;3.52;100.00
54407;BME280;40313;50.308;30.374;2023-03-16T09:05:09;99176.63;;;3.45;100.00
54407;BME280;40313;50.308;30.374;2023-03-16T09:07:36;99173.56;;;3.34;100.00
54407;BME280;40313;50.308;30.374;2023-03-16T10:54:32;99197.91;;;4.47;100.00
54407;BME280;40313;50.308;30.374;2023-03-16T10:56:59;99198.44;;;4.55;100.00
54407;BME280;40313;50.308;30.374;2023-03-16T10:59:30;99194.78;;;4.61;100.00
54407;BME280;40313;50.308;30.374;2023-03-16T11:01:59;99198.44;;;4.55;100.00
54407;BME280;40313;50.308;30.374;2023-03-16T11:04:30;99196.06;;;4.50;100.00
54407;BME280;40313;50.308;30.374;2023-03-16T11:06:57;99204.63;;;4.51;100.00
54407;BME280;40313;50.308;30.374;2023-03-16T11:09:25;99194.97;;;4.56;100.00
54407;BME280;40313;50.308;30.374;2023-03-16T11:11:59;99195.16;;;4.52;100.00
54407;BME280;40313;50.308;30.374;2023-03-16T11:14:27;99199.47;;;4.51;100.00
54407;BME280;40313;50.308;30.374;2023-03-16T11:16:59;99195.94;;;4.54;100.00
54407;BME280;40313;50.308;30.374;2023-03-16T11:19:29;99196.75;;;4.54;100.00
54407;BME280;40313;50.308;30.374;2023-03-16T11:22:01;99201.16;;;4.52;100.00
54407;BME280;40313;50.308;30.374;2023-03-16T11:24:36;99206.19;;;4.55;100.00
54407;BME280;40313;50.308;30.374;2023-03-16T11:27:04;99207.53;;;4.65;100.00
54407;BME280;40313;50.308;30.374;2023-03-16T11:29:45;99213.81;;;4.58;100.00
54407;BME280;40313;50.308;30.374;2023-03-16T11:32:18;99218.09;;;4.59;100.00
54407;BME280;40313;50.308;30.374;2023-03-16T11:34:45;99215.84;;;4.50;100.00
54407;BME280;40313;50.308;30.374;2023-03-16T11:37:21;99213.88;;;4.35;100.00
54407;BME280;40313;50.308;30.374;2023-03-16T11:39:57;99219.44;;;4.24;100.00
54407;BME280;40313;50.308;30.374;2023-03-16T11:42:34;99225.34;;;4.27;100.00
54407;BME280;40313;50.308;30.374;2023-03-16T11:45:14;99232.84;;;4.33;100.00
54407;BME280;40313;50.308;30.374;2023-03-16T11:48:22;99238.19;;;4.29;100.00
54407;BME280;40313;50.308;30.374;2023-03-16T11:50:52;99245.25;;;4.24;100.00
54407;BME280;40313;50.308;30.374;2023-03-16T11:53:31;99248.00;;;4.19;100.00
54407;BME280;40313;50.308;30.374;2023-03-16T11:56:10;99243.47;;;4.26;100.00
54407;BME280;40313;50.308;30.374;2023-03-16T11:58:59;99247.06;;;4.22;100.00
54407;BME280;40313;50.308;30.374;2023-03-16T12:01:36;99260.78;;;3.98;100.00
54407;BME280;40313;50.308;30.374;2023-03-16T12:04:18;99267.16;;;3.88;100.00
54407;BME280;40313;50.308;30.374;2023-03-16T12:07:03;99258.41;;;3.92;100.00
54407;BME280;40313;50.308;30.374;2023-03-16T12:09:49;99273.00;;;3.93;100.00
54407;BME280;40313;50.308;30.374;2023-03-16T12:12:28;99262.56;;;3.96;100.00
54407;BME280;40313;50.308;30.374;2023-03-16T12:15:16;99264.22;;;3.99;100.00
54407;BME280;40313;50.308;30.374;2023-03-16T12:17:47;99277.28;;;3.94;100.00
54407;BME280;40313;50.308;30.374;2023-03-16T12:20:16;99277.38;;;3.91;100.00
54407;BME280;40313;50.308;30.374;2023-03-16T12:22:45;99280.91;;;3.89;100.00
54407;BME280;40313;50.308;30.374;2023-03-16T12:25:16;99280.16;;;3.85;100.00
54407;BME280;40313;50.308;30.374;2023-03-16T12:27:46;99288.59;;;3.90;100.00
54407;BME280;40313;50.308;30.374;2023-03-16T12:30:26;99282.53;;;3.91;100.00
54407;BME280;40313;50.308;30.374;2023-03-16T12:33:03;99286.09;;;3.87;100.00
54407;BME280;40313;50.308;30.374;2023-03-16T12:35:39;99294.00;;;3.83;100.00
54407;BME280;40313;50.308;30.374;2023-03-16T12:38:21;99289.78;;;3.80;100.00
54407;BME280;40313;50.308;30.374;2023-03-16T12:41:00;99288.84;;;3.83;100.00
54407;BME280;40313;50.308;30.374;2023-03-16T12:43:48;99283.53;;;3.87;100.00
54407;BME280;40313;50.308;30.374;2023-03-16T12:46:22;99286.81;;;3.92;100.00
54407;BME280;40313;50.308;30.374;2023-03-16T12:48:52;99287.78;;;3.88;100.00
54407;BME280;40313;50.308;30.374;2023-03-16T12:51:19;99295.66;;;3.85;100.00
54407;BME280;40313;50.308;30.374;2023-03-16T12:53:53;99295.75;;;3.82;100.00
54407;BME280;40313;50.308;30.374;2023-03-16T12:56:27;99307.56;;;3.89;100.00
54407;BME280;40313;50.308;30.374;2023-03-16T12:58:55;99299.13;;;3.84;100.00
54407;BME280;40313;50.308;30.374;2023-03-16T13:01:26;99308.50;;;3.87;100.00
54407;BME280;40313;50.308;30.374;2023-03-16T13:03:59;99306.97;;;3.81;100.00
54407;BME280;40313;50.308;30.374;2023-03-16T13:06:32;99307.06;;;3.78;100.00
54407;BME280;40313;50.308;30.374;2023-03-16T13:09:00;99307.25;;;3.73;100.00
54407;BME280;40313;50.308;30.374;2023-03-16T13:11:39;99320.19;;;3.72;100.00
54407;BME280;40313;50.308;30.374;2023-03-16T13:14:07;99326.28;;;3.69;100.00
54407;BME280;40313;50.308;30.374;2023-03-16T13:16:37;99327.38;;;3.62;100.00
54407;BME280;40313;50.308;30.374;2023-03-16T13:19:20;99322.28;;;3.60;100.00
54407;BME280;40313;50.308;30.374;2023-03-16T13:21:58;99330.78;;;3.62;100.00
54407;BME280;40313;50.308;30.374;2023-03-16T13:24:27;99335.47;;;3.51;100.00
54407;BME280;40313;50.308;30.374;2023-03-16T13:26:57;99334.72;;;3.48;100.00
54407;BME280;40313;50.308;30.374;2023-03-16T13:29:28;99330.59;;;3.42;100.00
54407;BME280;40313;50.308;30.374;2023-03-16T13:31:58;99339.94;;;3.46;100.00
54407;BME280;40313;50.308;30.374;2023-03-16T13:34:28;99327.09;;;3.44;100.00
54407;BME280;40313;50.308;30.374;2023-03-16T13:36:57;99326.25;;;3.44;100.00
54407;BME280;40313;50.308;30.374;2023-03-16T13:39:26;99334.03;;;3.42;100.00
54407;BME280;40313;50.308;30.374;2023-03-16T13:41:58;99342.56;;;3.44;100.00
54407;BME280;40313;50.308;30.374;2023-03-16T13:44:26;99336.75;;;3.38;100.00
54407;BME280;40313;50.308;30.374;2023-03-16T13:46:54;99345.69;;;3.27;100.00
54407;BME280;40313;50.308;30.374;2023-03-16T13:49:22;99334.28;;;3.06;100.00
54407;BME280;40313;50.308;30.374;2023-03-16T13:51:48;99351.44;;;3.07;100.00
54407;BME280;40313;50.308;30.374;2023-03-16T13:54:17;99344.59;;;3.06;100.00
54407;BME280;40313;50.308;30.374;2023-03-16T13:56:44;99350.91;;;2.96;100.00
54407;BME280;40313;50.308;30.374;2023-03-16T13:59:11;99353.53;;;2.94;100.00
54407;BME280;40313;50.308;30.374;2023-03-16T14:01:43;99360.56;;;2.89;100.00
54407;BME280;40313;50.308;30.374;2023-03-16T14:04:11;99358.91;;;2.87;100.00
54407;BME280;40313;50.308;30.374;2023-03-16T14:06:52;99371.13;;;2.80;100.00
54407;BME280;40313;50.308;30.374;2023-03-16T14:09:23;99361.75;;;2.78;100.00
54407;BME280;40313;50.308;30.374;2023-03-16T14:11:51;99362.78;;;2.72;100.00
54407;BME280;40313;50.308;30.374;2023-03-16T14:14:24;99369.69;;;2.70;100.00
54407;BME280;40313;50.308;30.374;2023-03-16T14:16:52;99377.50;;;2.67;100.00
54407;BME280;40313;50.308;30.374;2023-03-16T14:19:21;99371.66;;;2.62;100.00
54407;BME280;40313;50.308;30.374;2023-03-16T14:21:53;99382.84;;;2.61;100.00
54407;BME280;40313;50.308;30.374;2023-03-16T14:24:27;99373.50;;;2.56;100.00
54407;BME280;40313;50.308;30.374;2023-03-16T14:26:56;99377.88;;;2.53;100.00
54407;BME280;40313;50.308;30.374;2023-03-16T14:29:26;99390.06;;;2.48;100.00
54407;BME280;40313;50.308;30.374;2023-03-16T14:31:54;99399.59;;;2.44;100.00
54407;BME280;40313;50.308;30.374;2023-03-16T14:34:27;99404.13;;;2.34;100.00
54407;BME280;40313;50.308;30.374;2023-03-16T14:37:06;99419.75;;;2.28;100.00
54407;BME280;40313;50.308;30.374;2023-03-16T14:39:33;99418.81;;;2.31;100.00
54407;BME280;40313;50.308;30.374;2023-03-16T14:42:01;99411.97;;;2.30;100.00
54407;BME280;40313;50.308;30.374;2023-03-16T14:44:30;99420.53;;;2.32;100.00